createdAt,value
2023-04-07T00:00:04.634Z,74.70
2023-04-07T00:02:33.078Z,74.40
2023-04-07T00:05:02.904Z,74.40
2023-04-07T00:07:31.816Z,74.50
2023-04-07T00:10:00.625Z,73.70
2023-04-07T00:12:29.858Z,73.40
2023-04-07T00:14:57.662Z,73.80
2023-04-07T00:17:25.555Z,74.10
2023-04-07T00:19:53.411Z,74.00
2023-04-07T00:22:21.274Z,74.40
2023-04-07T00:24:49.062Z,73.90
2023-04-07T00:27:16.868Z,73.60
2023-04-07T00:29:46.771Z,73.80
2023-04-07T00:32:14.554Z,74.30
2023-04-07T00:34:42.323Z,73.70
2023-04-07T00:37:10.118Z,73.90
2023-04-07T00:39:38.122Z,73.40
2023-04-07T00:42:06.605Z,73.20
2023-04-07T00:44:34.566Z,73.30
2023-04-07T00:47:03.757Z,73.30
2023-04-07T00:49:32.081Z,73.50
2023-04-07T00:52:00.234Z,72.50
2023-04-07T00:54:28.256Z,72.60
2023-04-07T00:56:57.455Z,72.80
2023-04-07T00:59:26.033Z,72.70
2023-04-07T01:02:00.048Z,72.90
2023-04-07T01:04:34.582Z,72.80
2023-04-07T01:07:06.504Z,73.30
2023-04-07T01:09:40.018Z,72.90
2023-04-07T01:12:16.608Z,72.70
2023-04-07T01:14:51.928Z,72.90
2023-04-07T01:17:22.154Z,72.70
2023-04-07T01:19:57.313Z,72.80
2023-04-07T01:22:29.574Z,73.00
2023-04-07T01:25:26.808Z,72.80
2023-04-07T01:28:07.114Z,73.10
2023-04-07T01:30:41.192Z,73.50
2023-04-07T01:33:11.023Z,73.90
2023-04-07T01:35:40.364Z,74.10
2023-04-07T01:38:12.296Z,73.70
2023-04-07T01:40:41.478Z,73.50
2023-04-07T01:43:09.951Z,73.60
2023-04-07T01:45:40.838Z,73.70
2023-04-07T01:48:09.439Z,73.30
2023-04-07T01:50:38.961Z,73.80
2023-04-07T01:53:07.863Z,73.60
2023-04-07T01:55:35.971Z,73.60
2023-04-07T01:58:06.868Z,74.10
2023-04-07T02:00:34.854Z,73.50
2023-04-07T02:03:10.803Z,73.40
2023-04-07T02:05:40.794Z,73.60
2023-04-07T02:08:11.673Z,72.80
2023-04-07T02:10:40.400Z,73.00
2023-04-07T02:13:11.001Z,73.40
2023-04-07T02:15:41.616Z,73.40
2023-04-07T02:18:12.907Z,73.80
2023-04-07T02:20:42.053Z,73.70
2023-04-07T02:23:10.131Z,74.30
2023-04-07T02:25:39.115Z,74.20
2023-04-07T02:28:07.337Z,74.20
2023-04-07T02:30:35.690Z,74.10
2023-04-07T02:33:03.685Z,74.20
2023-04-07T02:35:32.827Z,74.20
2023-04-07T02:38:00.607Z,74.60
2023-04-07T02:40:28.492Z,74.20
2023-04-07T02:42:56.302Z,74.30
2023-04-07T02:45:24.353Z,74.20
2023-04-07T02:47:52.209Z,74.50
2023-04-07T02:50:20.205Z,73.90
2023-04-07T02:52:49.404Z,73.50
2023-04-07T02:55:18.435Z,73.50
2023-04-07T02:57:46.288Z,73.70
2023-04-07T03:00:15.460Z,73.90
2023-04-07T03:02:43.491Z,73.50
2023-04-07T03:05:11.395Z,73.20
2023-04-07T03:07:39.185Z,73.30
2023-04-07T03:10:09.122Z,73.30
2023-04-07T03:12:36.885Z,73.50
2023-04-07T03:15:05.095Z,72.80
2023-04-07T03:17:32.920Z,72.40
2023-04-07T03:20:00.905Z,72.20
2023-04-07T03:22:28.714Z,72.20
2023-04-07T03:24:56.660Z,72.50
2023-04-07T03:27:25.841Z,72.80
2023-04-07T03:29:54.254Z,73.00
2023-04-07T03:32:22.044Z,73.00
2023-04-07T03:34:49.923Z,72.80
2023-04-07T03:37:17.772Z,73.00
2023-04-07T03:39:45.664Z,72.50
2023-04-07T03:42:13.899Z,73.00
2023-04-07T03:44:43.060Z,73.20
2023-04-07T03:47:11.037Z,73.10
2023-04-07T03:49:39.550Z,73.10
2023-04-07T03:52:07.376Z,73.20
2023-04-07T03:54:35.882Z,72.90
2023-04-07T03:57:04.075Z,72.70
2023-04-07T03:59:31.907Z,72.60
2023-04-07T04:02:01.159Z,73.00
2023-04-07T04:04:29.061Z,72.80
2023-04-07T04:06:57.036Z,73.00
2023-04-07T04:09:24.916Z,73.20
2023-04-07T04:11:52.709Z,73.10
2023-04-07T04:14:20.553Z,73.00
2023-04-07T04:16:48.330Z,73.10
2023-04-07T04:19:17.471Z,73.10
2023-04-07T04:21:46.045Z,73.20
2023-04-07T04:24:13.903Z,73.30
2023-04-07T04:26:41.935Z,73.50
2023-04-07T04:29:09.769Z,73.50
2023-04-07T04:31:37.716Z,73.80
2023-04-07T04:34:05.550Z,73.90
2023-04-07T04:36:35.649Z,74.30
2023-04-07T04:39:04.519Z,74.50
2023-04-07T04:41:32.325Z,75.50
2023-04-07T04:44:00.216Z,75.30
2023-04-07T04:46:28.104Z,75.30
2023-04-07T04:48:56.448Z,75.30
2023-04-07T04:51:24.567Z,75.80
2023-04-07T04:53:53.886Z,76.10
2023-04-07T04:56:22.303Z,76.50
2023-04-07T04:58:50.344Z,76.70
2023-04-07T05:01:18.136Z,77.70
2023-04-07T05:03:46.604Z,78.10
2023-04-07T05:06:14.524Z,78.40
2023-04-07T05:08:42.312Z,78.60
2023-04-07T05:11:12.162Z,79.70
2023-04-07T05:13:39.970Z,79.50
2023-04-07T05:16:08.615Z,79.90
2023-04-07T05:18:36.534Z,80.40
2023-04-07T05:21:04.607Z,80.90
2023-04-07T05:23:32.501Z,81.40
2023-04-07T05:26:00.381Z,81.30
2023-04-07T05:28:29.562Z,81.30
2023-04-07T05:30:57.352Z,81.70
2023-04-07T05:33:25.167Z,81.50
2023-04-07T05:35:53.024Z,81.50
2023-04-07T05:38:20.885Z,81.30
2023-04-07T05:40:48.752Z,81.20
2023-04-07T05:43:16.639Z,81.00
2023-04-07T05:45:45.785Z,80.80
2023-04-07T05:48:13.697Z,80.50
2023-04-07T05:50:41.654Z,79.90
2023-04-07T05:53:09.438Z,79.20
2023-04-07T05:55:37.229Z,79.50
2023-04-07T05:58:05.291Z,79.90
2023-04-07T06:00:33.075Z,79.40
2023-04-07T06:03:03.789Z,79.20
2023-04-07T06:05:31.790Z,77.70
2023-04-07T06:07:59.668Z,76.60
2023-04-07T06:10:27.684Z,76.50
2023-04-07T06:12:56.163Z,75.70
2023-04-07T06:15:23.978Z,75.00
2023-04-07T06:17:51.881Z,74.70
2023-04-07T06:20:21.601Z,74.60
2023-04-07T06:22:49.558Z,73.20
2023-04-07T06:25:17.924Z,72.60
2023-04-07T06:27:45.731Z,71.70
2023-04-07T06:30:14.300Z,71.00
2023-04-07T06:32:42.357Z,70.30
2023-04-07T06:35:10.591Z,70.80
2023-04-07T06:37:40.461Z,71.30
2023-04-07T06:40:09.532Z,69.50
2023-04-07T06:42:37.343Z,67.50
2023-04-07T06:45:05.849Z,64.90
2023-04-07T06:47:33.712Z,63.90
2023-04-07T06:50:01.597Z,61.90
2023-04-07T06:52:29.386Z,60.40
2023-04-07T06:54:59.633Z,60.10
2023-04-07T06:57:27.587Z,63.00
2023-04-07T06:59:55.535Z,65.40
2023-04-07T07:02:23.495Z,63.20
2023-04-07T07:04:51.578Z,58.30
2023-04-07T07:07:19.424Z,59.80
2023-04-07T07:09:47.236Z,58.90
2023-04-07T07:12:17.922Z,59.00
2023-04-07T07:14:45.826Z,60.30
2023-04-07T07:17:13.683Z,59.70
2023-04-07T07:19:41.469Z,61.80
2023-04-07T07:22:09.271Z,61.50
2023-04-07T07:24:37.100Z,61.00
2023-04-07T07:27:04.936Z,61.00
2023-04-07T07:29:34.143Z,57.60
2023-04-07T07:32:01.971Z,56.50
2023-04-07T07:34:29.757Z,56.70
2023-04-07T07:36:57.528Z,56.80
2023-04-07T07:39:25.410Z,56.20
2023-04-07T07:41:53.249Z,59.10
2023-04-07T07:44:21.237Z,58.40
2023-04-07T07:46:50.800Z,58.50
2023-04-07T07:49:19.060Z,58.20
2023-04-07T07:51:47.158Z,59.70
2023-04-07T07:54:15.017Z,59.70
2023-04-07T07:56:42.806Z,59.00
2023-04-07T07:59:10.618Z,59.50
2023-04-07T08:01:38.436Z,61.00
2023-04-07T08:04:07.874Z,60.70
2023-04-07T08:06:37.565Z,59.20
2023-04-07T08:09:06.285Z,58.40
2023-04-07T08:11:34.178Z,58.40
2023-04-07T08:14:02.025Z,57.70
2023-04-07T08:16:29.891Z,59.40
2023-04-07T08:18:57.772Z,58.10
2023-04-07T08:21:27.826Z,60.00
2023-04-07T08:23:56.389Z,60.50
2023-04-07T08:26:24.212Z,60.40
2023-04-07T08:28:52.521Z,60.30
2023-04-07T08:31:20.754Z,59.70
2023-04-07T08:33:48.813Z,60.40
2023-04-07T08:36:16.890Z,60.30
2023-04-07T08:38:46.066Z,59.30
2023-04-07T08:41:18.387Z,58.20
2023-04-07T08:43:49.424Z,53.70
2023-04-07T08:46:21.447Z,53.00
2023-04-07T08:48:52.613Z,53.60
2023-04-07T08:51:29.188Z,55.10
2023-04-07T08:54:05.786Z,54.70
2023-04-07T08:56:35.066Z,54.80
2023-04-07T08:59:03.434Z,54.90
2023-04-07T09:01:32.173Z,55.30
2023-04-07T09:04:00.946Z,54.10
2023-04-07T09:06:28.928Z,52.40
2023-04-07T09:08:56.717Z,51.70
2023-04-07T09:11:28.531Z,53.00
2023-04-07T09:13:57.102Z,53.60
2023-04-07T09:16:25.238Z,52.70
2023-04-07T09:18:54.385Z,50.80
2023-04-07T09:21:22.173Z,52.20
2023-04-07T09:23:51.779Z,54.20
2023-04-07T09:26:22.968Z,52.80
2023-04-07T09:28:54.472Z,52.60
2023-04-07T09:31:22.875Z,50.80
2023-04-07T09:33:51.763Z,50.00
2023-04-07T09:36:19.802Z,50.70
2023-04-07T09:38:47.650Z,48.60
2023-04-07T09:41:17.559Z,49.50
2023-04-07T09:43:47.174Z,48.00
2023-04-07T09:46:19.063Z,45.40
2023-04-07T09:48:48.595Z,45.90
2023-04-07T09:51:18.360Z,46.50
2023-04-07T09:53:51.919Z,46.60
2023-04-07T09:56:27.796Z,46.80
2023-04-07T09:58:56.430Z,46.30
2023-04-07T10:01:25.608Z,46.80
2023-04-07T10:03:56.220Z,45.80
2023-04-07T10:06:24.354Z,50.10
2023-04-07T10:08:52.450Z,48.90
2023-04-07T10:11:20.775Z,52.80
2023-04-07T10:13:48.822Z,53.70
2023-04-07T10:16:17.079Z,50.90
2023-04-07T10:18:46.527Z,49.70
2023-04-07T10:21:18.046Z,51.50
2023-04-07T10:23:53.764Z,52.00
2023-04-07T10:26:27.429Z,52.10
2023-04-07T10:29:00.687Z,52.10
2023-04-07T10:31:29.059Z,50.70
2023-04-07T10:33:58.451Z,49.80
2023-04-07T10:36:26.569Z,50.50
2023-04-07T10:39:21.745Z,50.70
2023-04-07T10:41:51.710Z,51.40
2023-04-07T10:44:49.796Z,50.50
2023-04-07T10:47:17.727Z,50.40
2023-04-07T10:50:23.707Z,51.10
2023-04-07T10:53:07.224Z,51.40
2023-04-07T10:55:39.325Z,48.30
2023-04-07T10:58:22.021Z,48.60
2023-04-07T11:01:19.709Z,47.10
2023-04-07T11:04:07.311Z,46.60
2023-04-07T11:06:36.765Z,46.20
2023-04-07T11:09:04.604Z,47.50
2023-04-07T11:11:40.737Z,50.70
2023-04-07T11:14:08.812Z,49.70
2023-04-07T11:16:41.951Z,48.90
2023-04-07T11:19:10.612Z,50.30
2023-04-07T11:21:40.064Z,52.50
2023-04-07T11:24:07.869Z,53.30
2023-04-07T11:26:40.310Z,55.50
2023-04-07T11:29:08.399Z,55.10
2023-04-07T11:31:36.358Z,55.00
2023-04-07T11:34:05.713Z,55.20
2023-04-07T11:36:35.017Z,56.50
2023-04-07T11:39:04.648Z,56.30
2023-04-07T11:41:33.853Z,56.70
2023-04-07T11:44:08.725Z,56.30
2023-04-07T11:46:37.426Z,56.90
2023-04-07T11:49:13.185Z,57.60
2023-04-07T11:51:41.817Z,57.10
2023-04-07T11:54:11.138Z,57.60
2023-04-07T11:56:47.181Z,55.10
2023-04-07T11:59:23.004Z,56.80
2023-04-07T12:01:51.963Z,54.90
2023-04-07T12:04:21.036Z,54.40
2023-04-07T12:06:50.030Z,52.90
2023-04-07T12:09:30.589Z,52.40
2023-04-07T12:11:59.124Z,52.50
2023-04-07T12:14:27.683Z,53.50
2023-04-07T12:16:57.789Z,55.80
2023-04-07T12:19:26.731Z,58.00
2023-04-07T12:21:54.682Z,60.80
2023-04-07T12:24:23.732Z,62.30
2023-04-07T12:26:53.024Z,64.30
2023-04-07T12:29:20.871Z,64.80
2023-04-07T12:31:50.827Z,62.40
2023-04-07T12:34:19.387Z,63.60
2023-04-07T12:36:47.466Z,64.60
2023-04-07T12:39:15.705Z,64.30
2023-04-07T12:41:45.321Z,66.40
2023-04-07T12:44:14.504Z,65.70
2023-04-07T12:46:43.184Z,65.90
2023-04-07T12:49:11.036Z,67.70
2023-04-07T12:51:40.117Z,67.90
2023-04-07T12:54:08.134Z,65.60
2023-04-07T12:56:36.239Z,66.20
2023-04-07T12:59:04.058Z,65.50
2023-04-07T13:01:35.357Z,63.80
2023-04-07T13:04:03.463Z,63.20
2023-04-07T13:06:31.654Z,63.70
2023-04-07T13:08:59.514Z,63.70
2023-04-07T13:11:27.368Z,63.20
2023-04-07T13:13:57.401Z,63.00
2023-04-07T13:16:26.452Z,61.60
2023-04-07T13:18:55.603Z,62.70
2023-04-07T13:23:54.480Z,59.70
2023-04-07T13:26:22.495Z,58.90
2023-04-07T13:28:50.362Z,60.40
2023-04-07T13:31:18.215Z,60.80
2023-04-07T13:33:46.594Z,59.80
2023-04-07T13:36:16.147Z,59.60
2023-04-07T13:38:43.971Z,59.80
2023-04-07T13:41:11.809Z,59.00
2023-04-07T13:43:39.598Z,59.70
2023-04-07T13:46:17.208Z,59.30
2023-04-07T13:48:55.323Z,59.20
2023-04-07T13:51:24.517Z,58.60
2023-04-07T13:53:52.466Z,58.70
2023-04-07T13:56:20.396Z,61.60
2023-04-07T13:58:48.188Z,63.50
2023-04-07T14:01:16.093Z,64.40
2023-04-07T14:03:44.103Z,65.40
2023-04-07T14:06:12.021Z,66.90
2023-04-07T14:08:41.229Z,69.00
2023-04-07T14:11:09.067Z,69.80
2023-04-07T14:13:38.222Z,74.20
2023-04-07T14:16:06.711Z,76.00
2023-04-07T14:18:34.584Z,76.70
2023-04-07T14:21:03.278Z,77.90
2023-04-07T14:23:37.395Z,78.40
2023-04-07T14:26:10.412Z,79.40
2023-04-07T14:28:38.357Z,78.20
2023-04-07T14:31:06.626Z,78.70
2023-04-07T14:33:34.600Z,80.20
2023-04-07T14:36:02.968Z,77.30
2023-04-07T14:38:30.997Z,79.10
2023-04-07T14:41:09.629Z,78.50
2023-04-07T14:43:39.792Z,79.40
2023-04-07T14:46:08.548Z,79.30
2023-04-07T14:48:36.447Z,80.70
2023-04-07T14:51:09.880Z,81.40
2023-04-07T14:53:37.964Z,82.80
2023-04-07T14:56:06.010Z,83.50
2023-04-07T14:58:37.260Z,83.80
2023-04-07T15:01:06.819Z,84.80
2023-04-07T15:03:35.618Z,85.90
2023-04-07T15:06:07.244Z,87.20
2023-04-07T15:08:35.154Z,87.20
2023-04-07T15:11:05.537Z,87.40
2023-04-07T15:13:33.385Z,86.60
2023-04-07T15:16:09.732Z,85.50
2023-04-07T15:18:39.519Z,85.10
2023-04-07T15:21:07.719Z,83.80
2023-04-07T15:23:37.645Z,83.90
2023-04-07T15:26:05.833Z,81.80
2023-04-07T15:28:33.685Z,82.50
2023-04-07T15:31:01.763Z,81.70
2023-04-07T15:33:30.980Z,81.40
2023-04-07T15:36:01.683Z,82.30
2023-04-07T15:38:29.684Z,83.40
2023-04-07T15:40:57.605Z,82.90
2023-04-07T15:43:25.598Z,83.50
2023-04-07T15:45:55.635Z,83.60
2023-04-07T15:48:23.788Z,82.70
2023-04-07T15:50:54.601Z,83.50
2023-04-07T15:53:22.688Z,84.10
2023-04-07T15:55:50.504Z,85.00
2023-04-07T15:58:18.421Z,84.80
2023-04-07T16:00:47.167Z,85.30
2023-04-07T16:03:15.341Z,84.40
2023-04-07T16:05:43.489Z,85.30
2023-04-07T16:08:13.860Z,84.60
2023-04-07T16:10:42.947Z,84.70
2023-04-07T16:13:11.180Z,83.90
2023-04-07T16:15:41.215Z,83.30
2023-04-07T16:18:10.875Z,83.50
2023-04-07T16:20:38.845Z,84.30
2023-04-07T16:23:06.703Z,83.90
2023-04-07T16:25:37.251Z,83.60
2023-04-07T16:28:05.085Z,84.30
2023-04-07T16:30:36.328Z,84.80
2023-04-07T16:33:04.222Z,85.20
2023-04-07T16:35:33.671Z,84.10
2023-04-07T16:38:04.461Z,84.10
2023-04-07T16:40:32.691Z,84.60
2023-04-07T16:43:01.987Z,84.30
2023-04-07T16:45:29.908Z,85.00
2023-04-07T16:47:57.773Z,84.90
2023-04-07T16:50:25.603Z,84.50
2023-04-07T16:52:54.791Z,85.10
2023-04-07T16:55:22.772Z,86.20
2023-04-07T16:57:51.046Z,85.80
2023-04-07T17:00:21.066Z,85.80
2023-04-07T17:02:49.088Z,85.00
2023-04-07T17:05:17.276Z,86.50
2023-04-07T17:07:45.087Z,86.40
2023-04-07T17:10:14.443Z,86.70
2023-04-07T17:12:42.278Z,86.30
2023-04-07T17:15:10.800Z,86.70
2023-04-07T17:17:40.023Z,86.30
2023-04-07T17:20:08.872Z,86.30
2023-04-07T17:22:37.497Z,85.80
2023-04-07T17:25:06.189Z,86.60
2023-04-07T17:27:36.847Z,87.20
2023-04-07T17:30:06.656Z,87.60
2023-04-07T17:32:34.554Z,88.40
2023-04-07T17:35:03.797Z,88.10
2023-04-07T17:37:31.804Z,88.60
2023-04-07T17:40:00.264Z,89.00
2023-04-07T17:42:28.210Z,89.10
2023-04-07T17:44:56.730Z,89.40
2023-04-07T17:47:25.177Z,89.70
2023-04-07T17:49:53.019Z,89.50
2023-04-07T17:52:22.209Z,90.30
2023-04-07T17:54:50.054Z,90.80
2023-04-07T17:57:18.690Z,91.20
2023-04-07T17:59:48.805Z,90.70
2023-04-07T18:02:17.174Z,90.50
2023-04-07T18:04:45.546Z,90.70
2023-04-07T18:07:13.630Z,90.90
2023-04-07T18:09:43.168Z,90.60
2023-04-07T18:12:11.413Z,90.40
2023-04-07T18:14:39.228Z,89.70
2023-04-07T18:17:07.086Z,89.40
2023-04-07T18:19:34.931Z,89.70
2023-04-07T18:22:02.760Z,89.90
2023-04-07T18:24:31.186Z,89.90
2023-04-07T18:27:00.324Z,89.30
2023-04-07T18:29:28.095Z,89.40
2023-04-07T18:31:55.896Z,90.10
2023-04-07T18:34:25.950Z,90.00
2023-04-07T18:36:53.886Z,90.30
2023-04-07T18:39:22.092Z,91.30
2023-04-07T18:41:49.968Z,91.20
2023-04-07T18:44:19.145Z,91.30
2023-04-07T18:46:47.043Z,91.50
2023-04-07T18:49:14.897Z,91.70
2023-04-07T18:51:44.554Z,91.90
2023-04-07T18:54:12.948Z,92.00
2023-04-07T18:56:40.820Z,92.50
2023-04-07T18:59:08.937Z,92.80
2023-04-07T19:01:39.039Z,93.50
2023-04-07T19:04:06.971Z,93.40
2023-04-07T19:06:35.760Z,93.40
2023-04-07T19:09:03.970Z,93.00
2023-04-07T19:11:32.663Z,93.10
2023-04-07T19:14:00.718Z,93.10
2023-04-07T19:16:28.721Z,92.90
2023-04-07T19:18:58.042Z,92.60
2023-04-07T19:21:26.422Z,92.60
2023-04-07T19:23:56.072Z,92.30
2023-04-07T19:26:24.154Z,92.20
2023-04-07T19:28:51.954Z,91.90
2023-04-07T19:31:19.843Z,91.90
2023-04-07T19:33:48.930Z,91.70
2023-04-07T19:36:18.449Z,91.30
2023-04-07T19:38:46.334Z,91.70
2023-04-07T19:41:14.170Z,91.80
2023-04-07T19:43:42.578Z,91.90
2023-04-07T19:46:10.459Z,92.00
2023-04-07T19:48:38.307Z,91.20
2023-04-07T19:51:07.281Z,91.70
2023-04-07T19:53:37.452Z,92.00
2023-04-07T19:56:05.341Z,92.20
2023-04-07T19:58:34.395Z,92.20
2023-04-07T20:01:04.429Z,92.30
2023-04-07T20:03:34.065Z,92.60
2023-04-07T20:06:01.975Z,92.80
2023-04-07T20:08:29.809Z,92.80
2023-04-07T20:10:58.954Z,92.80
2023-04-07T20:13:28.077Z,93.00
2023-04-07T20:15:56.355Z,93.20
2023-04-07T20:18:24.261Z,93.10
2023-04-07T20:20:59.623Z,93.10
2023-04-07T20:23:27.548Z,92.80
2023-04-07T20:25:55.386Z,92.80
2023-04-07T20:28:24.999Z,92.70
2023-04-07T20:30:53.002Z,92.20
2023-04-07T20:33:21.347Z,92.00
2023-04-07T20:35:49.557Z,91.50
2023-04-07T20:38:18.672Z,91.40
2023-04-07T20:40:46.733Z,91.70
2023-04-07T20:43:15.679Z,91.60
2023-04-07T20:45:46.161Z,91.80
2023-04-07T20:48:15.532Z,92.00
2023-04-07T20:50:43.455Z,92.10
2023-04-07T20:53:11.302Z,92.40
2023-04-07T20:55:39.126Z,92.20
2023-04-07T20:58:07.174Z,92.50
2023-04-07T21:00:34.971Z,93.60
2023-04-07T21:03:04.527Z,94.50
2023-04-07T21:05:32.562Z,94.90
2023-04-07T21:08:03.761Z,95.30
2023-04-07T21:10:31.611Z,95.40
2023-04-07T21:12:59.452Z,95.30
2023-04-07T21:15:27.287Z,95.90
2023-04-07T21:17:55.193Z,96.30
2023-04-07T21:20:24.357Z,96.60
2023-04-07T21:22:52.178Z,96.70
2023-04-07T21:25:20.274Z,96.90
2023-04-07T21:27:48.183Z,97.30
2023-04-07T21:30:16.656Z,97.60
2023-04-07T21:32:46.425Z,97.60
2023-04-07T21:35:14.227Z,98.10
2023-04-07T21:37:43.360Z,98.40
2023-04-07T21:40:11.837Z,98.30
2023-04-07T21:42:39.658Z,98.20
2023-04-07T21:45:09.139Z,98.30
2023-04-07T21:47:37.059Z,98.20
2023-04-07T21:50:05.596Z,97.90
2023-04-07T21:52:33.393Z,98.00
2023-04-07T21:55:02.607Z,97.40
2023-04-07T21:57:30.773Z,97.30
2023-04-07T21:59:58.627Z,97.70
2023-04-07T22:02:27.210Z,98.30
2023-04-07T22:04:55.087Z,98.10
2023-04-07T22:07:22.872Z,97.90
2023-04-07T22:09:50.662Z,97.50
2023-04-07T22:12:19.801Z,97.70
2023-04-07T22:14:47.605Z,97.80
2023-04-07T22:17:15.655Z,97.50
2023-04-07T22:19:43.586Z,97.40
2023-04-07T22:22:11.534Z,97.50
2023-04-07T22:24:39.345Z,97.40
2023-04-07T22:27:07.160Z,96.60
2023-04-07T22:29:36.287Z,96.00
2023-04-07T22:32:04.093Z,96.10
2023-04-07T22:34:31.958Z,96.10
2023-04-07T22:36:59.771Z,96.30
2023-04-07T22:39:28.033Z,96.10
2023-04-07T22:41:56.097Z,95.90
2023-04-07T22:44:23.890Z,96.00
2023-04-07T22:46:53.125Z,96.40
2023-04-07T22:49:21.296Z,96.30
2023-04-07T22:51:50.558Z,96.20
2023-04-07T22:54:19.067Z,96.30
2023-04-07T22:56:46.939Z,96.30
2023-04-07T22:59:14.765Z,95.90
2023-04-07T23:01:42.655Z,95.80
2023-04-07T23:04:11.865Z,96.30
2023-04-07T23:06:40.551Z,96.80
2023-04-07T23:09:08.404Z,97.20
2023-04-07T23:11:36.546Z,96.90
2023-04-07T23:14:05.988Z,96.80
2023-04-07T23:16:34.490Z,97.20
2023-04-07T23:19:02.354Z,97.20
2023-04-07T23:21:32.187Z,97.20
2023-04-07T23:24:00.618Z,97.20
2023-04-07T23:26:28.437Z,97.20
2023-04-07T23:28:56.213Z,96.80
2023-04-07T23:31:24.125Z,96.70
2023-04-07T23:33:52.006Z,96.70
2023-04-07T23:36:19.773Z,96.70
2023-04-07T23:38:49.316Z,96.40
2023-04-07T23:41:17.625Z,96.20
2023-04-07T23:43:45.578Z,95.80
2023-04-07T23:46:13.450Z,95.70
2023-04-07T23:48:42.345Z,95.70
2023-04-07T23:51:10.125Z,96.20
2023-04-07T23:53:37.937Z,96.70
2023-04-07T23:56:07.821Z,97.00
2023-04-07T23:58:35.687Z,97.00
